sensor_id;sensor_type;location;lat;lon;timestamp;P1;durP1;ratioP1;P2;durP2;ratioP2
28074;SDS011;15385;51.088;6.572;2023-04-25T00:02:26;15.23;;;4.57;;
28074;SDS011;15385;51.088;6.572;2023-04-25T00:04:58;11.63;;;4.40;;
28074;SDS011;15385;51.088;6.572;2023-04-25T00:07:29;13.88;;;4.45;;
28074;SDS011;15385;51.088;6.572;2023-04-25T00:09:59;12.65;;;4.43;;
28074;SDS011;15385;51.088;6.572;2023-04-25T00:12:30;12.63;;;4.25;;
28074;SDS011;15385;51.088;6.572;2023-04-25T00:15:00;12.02;;;4.00;;
28074;SDS011;15385;51.088;6.572;2023-04-25T00:17:31;12.02;;;3.78;;
28074;SDS011;15385;51.088;6.572;2023-04-25T00:20:01;11.85;;;4.07;;
28074;SDS011;15385;51.088;6.572;2023-04-25T00:22:34;15.95;;;4.43;;
28074;SDS011;15385;51.088;6.572;2023-04-25T00:25:07;12.77;;;3.78;;
28074;SDS011;15385;51.088;6.572;2023-04-25T00:27:38;13.02;;;4.13;;
28074;SDS011;15385;51.088;6.572;2023-04-25T00:30:09;12.73;;;4.95;;
28074;SDS011;15385;51.088;6.572;2023-04-25T00:32:40;10.73;;;4.00;;
28074;SDS011;15385;51.088;6.572;2023-04-25T00:35:10;12.40;;;4.10;;
28074;SDS011;15385;51.088;6.572;2023-04-25T00:37:41;15.40;;;4.88;;
28074;SDS011;15385;51.088;6.572;2023-04-25T00:40:12;15.23;;;3.90;;
28074;SDS011;15385;51.088;6.572;2023-04-25T00:42:42;13.90;;;4.50;;
28074;SDS011;15385;51.088;6.572;2023-04-25T00:45:15;13.70;;;4.22;;
28074;SDS011;15385;51.088;6.572;2023-04-25T00:47:46;13.82;;;4.88;;
28074;SDS011;15385;51.088;6.572;2023-04-25T00:50:17;17.33;;;4.50;;
28074;SDS011;15385;51.088;6.572;2023-04-25T00:52:48;14.15;;;4.65;;
28074;SDS011;15385;51.088;6.572;2023-04-25T00:55:18;9.57;;;3.72;;
28074;SDS011;15385;51.088;6.572;2023-04-25T00:57:49;13.82;;;4.43;;
28074;SDS011;15385;51.088;6.572;2023-04-25T01:00:20;13.02;;;4.10;;
28074;SDS011;15385;51.088;6.572;2023-04-25T01:02:51;14.38;;;4.60;;
28074;SDS011;15385;51.088;6.572;2023-04-25T01:05:22;13.63;;;4.95;;
28074;SDS011;15385;51.088;6.572;2023-04-25T01:07:53;16.35;;;4.38;;
28074;SDS011;15385;51.088;6.572;2023-04-25T01:10:23;16.48;;;5.10;;
28074;SDS011;15385;51.088;6.572;2023-04-25T01:12:54;16.38;;;4.63;;
28074;SDS011;15385;51.088;6.572;2023-04-25T01:15:25;14.80;;;4.30;;
28074;SDS011;15385;51.088;6.572;2023-04-25T01:17:55;16.73;;;5.22;;
28074;SDS011;15385;51.088;6.572;2023-04-25T01:20:28;11.77;;;4.25;;
28074;SDS011;15385;51.088;6.572;2023-04-25T01:22:59;15.60;;;4.85;;
28074;SDS011;15385;51.088;6.572;2023-04-25T01:25:30;10.77;;;4.68;;
28074;SDS011;15385;51.088;6.572;2023-04-25T01:28:02;13.73;;;4.82;;
28074;SDS011;15385;51.088;6.572;2023-04-25T01:30:32;12.82;;;4.40;;
28074;SDS011;15385;51.088;6.572;2023-04-25T01:33:03;18.77;;;5.07;;
28074;SDS011;15385;51.088;6.572;2023-04-25T01:35:35;19.67;;;5.50;;
28074;SDS011;15385;51.088;6.572;2023-04-25T01:38:06;12.88;;;4.45;;
28074;SDS011;15385;51.088;6.572;2023-04-25T01:40:37;16.42;;;4.63;;
28074;SDS011;15385;51.088;6.572;2023-04-25T01:43:10;14.55;;;4.43;;
28074;SDS011;15385;51.088;6.572;2023-04-25T01:45:42;14.95;;;4.75;;
28074;SDS011;15385;51.088;6.572;2023-04-25T01:48:13;12.20;;;4.38;;
28074;SDS011;15385;51.088;6.572;2023-04-25T01:50:44;16.67;;;4.47;;
28074;SDS011;15385;51.088;6.572;2023-04-25T01:53:15;11.15;;;3.78;;
28074;SDS011;15385;51.088;6.572;2023-04-25T01:55:46;9.85;;;4.40;;
28074;SDS011;15385;51.088;6.572;2023-04-25T02:00:47;10.43;;;3.93;;
28074;SDS011;15385;51.088;6.572;2023-04-25T02:03:18;11.02;;;4.07;;
28074;SDS011;15385;51.088;6.572;2023-04-25T02:05:48;14.77;;;4.35;;
28074;SDS011;15385;51.088;6.572;2023-04-25T02:08:19;10.35;;;4.07;;
28074;SDS011;15385;51.088;6.572;2023-04-25T02:10:49;9.93;;;4.07;;
28074;SDS011;15385;51.088;6.572;2023-04-25T02:13:20;13.15;;;4.00;;
28074;SDS011;15385;51.088;6.572;2023-04-25T02:15:51;11.55;;;3.95;;
28074;SDS011;15385;51.088;6.572;2023-04-25T02:18:21;15.15;;;4.47;;
28074;SDS011;15385;51.088;6.572;2023-04-25T02:20:52;12.18;;;4.05;;
28074;SDS011;15385;51.088;6.572;2023-04-25T02:25:53;9.77;;;3.67;;
28074;SDS011;15385;51.088;6.572;2023-04-25T02:28:25;12.77;;;4.60;;
28074;SDS011;15385;51.088;6.572;2023-04-25T02:30:56;9.70;;;3.88;;
28074;SDS011;15385;51.088;6.572;2023-04-25T02:33:26;12.77;;;4.55;;
28074;SDS011;15385;51.088;6.572;2023-04-25T02:35:57;11.85;;;4.00;;
28074;SDS011;15385;51.088;6.572;2023-04-25T02:38:27;11.23;;;4.28;;
28074;SDS011;15385;51.088;6.572;2023-04-25T02:40:58;9.30;;;3.90;;
28074;SDS011;15385;51.088;6.572;2023-04-25T02:43:28;9.43;;;4.13;;
28074;SDS011;15385;51.088;6.572;2023-04-25T02:45:59;11.70;;;4.75;;
28074;SDS011;15385;51.088;6.572;2023-04-25T02:48:30;12.07;;;4.28;;
28074;SDS011;15385;51.088;6.572;2023-04-25T02:51:00;15.15;;;4.63;;
28074;SDS011;15385;51.088;6.572;2023-04-25T02:53:31;11.43;;;4.50;;
28074;SDS011;15385;51.088;6.572;2023-04-25T02:56:01;17.70;;;4.38;;
28074;SDS011;15385;51.088;6.572;2023-04-25T02:58:32;10.07;;;3.83;;
28074;SDS011;15385;51.088;6.572;2023-04-25T03:01:03;9.68;;;4.45;;
28074;SDS011;15385;51.088;6.572;2023-04-25T03:03:33;10.23;;;4.53;;
28074;SDS011;15385;51.088;6.572;2023-04-25T03:06:04;14.60;;;4.47;;
28074;SDS011;15385;51.088;6.572;2023-04-25T03:08:35;14.32;;;4.63;;
28074;SDS011;15385;51.088;6.572;2023-04-25T03:11:05;13.82;;;4.63;;
28074;SDS011;15385;51.088;6.572;2023-04-25T03:13:36;12.27;;;4.95;;
28074;SDS011;15385;51.088;6.572;2023-04-25T03:16:06;13.15;;;4.53;;
28074;SDS011;15385;51.088;6.572;2023-04-25T03:18:37;13.95;;;4.90;;
28074;SDS011;15385;51.088;6.572;2023-04-25T03:21:08;17.23;;;5.50;;
28074;SDS011;15385;51.088;6.572;2023-04-25T03:23:39;16.48;;;6.05;;
28074;SDS011;15385;51.088;6.572;2023-04-25T03:26:09;11.85;;;4.80;;
28074;SDS011;15385;51.088;6.572;2023-04-25T03:28:40;13.75;;;4.95;;
28074;SDS011;15385;51.088;6.572;2023-04-25T03:31:11;13.40;;;4.93;;
28074;SDS011;15385;51.088;6.572;2023-04-25T03:33:42;12.52;;;4.38;;
28074;SDS011;15385;51.088;6.572;2023-04-25T03:36:12;16.13;;;5.25;;
28074;SDS011;15385;51.088;6.572;2023-04-25T03:38:43;11.52;;;4.80;;
28074;SDS011;15385;51.088;6.572;2023-04-25T03:41:13;10.07;;;4.63;;
28074;SDS011;15385;51.088;6.572;2023-04-25T03:43:44;10.70;;;5.13;;
28074;SDS011;15385;51.088;6.572;2023-04-25T03:46:15;13.68;;;5.25;;
28074;SDS011;15385;51.088;6.572;2023-04-25T03:48:45;12.73;;;4.88;;
28074;SDS011;15385;51.088;6.572;2023-04-25T03:51:16;16.20;;;5.35;;
28074;SDS011;15385;51.088;6.572;2023-04-25T03:53:47;14.23;;;5.05;;
28074;SDS011;15385;51.088;6.572;2023-04-25T03:56:17;17.23;;;5.10;;
28074;SDS011;15385;51.088;6.572;2023-04-25T03:58:48;12.38;;;4.20;;
28074;SDS011;15385;51.088;6.572;2023-04-25T04:01:19;15.70;;;5.03;;
28074;SDS011;15385;51.088;6.572;2023-04-25T04:03:50;14.23;;;5.32;;
28074;SDS011;15385;51.088;6.572;2023-04-25T04:06:20;14.35;;;5.20;;
28074;SDS011;15385;51.088;6.572;2023-04-25T04:08:51;16.85;;;5.40;;
28074;SDS011;15385;51.088;6.572;2023-04-25T04:11:21;17.42;;;5.50;;
28074;SDS011;15385;51.088;6.572;2023-04-25T04:13:52;12.50;;;4.75;;
28074;SDS011;15385;51.088;6.572;2023-04-25T04:16:23;14.18;;;4.72;;
28074;SDS011;15385;51.088;6.572;2023-04-25T04:18:53;16.80;;;5.75;;
28074;SDS011;15385;51.088;6.572;2023-04-25T04:21:24;14.35;;;4.82;;
28074;SDS011;15385;51.088;6.572;2023-04-25T04:23:54;13.23;;;5.00;;
28074;SDS011;15385;51.088;6.572;2023-04-25T04:26:25;15.38;;;5.07;;
28074;SDS011;15385;51.088;6.572;2023-04-25T04:28:56;11.98;;;4.63;;
28074;SDS011;15385;51.088;6.572;2023-04-25T04:31:29;18.67;;;4.95;;
28074;SDS011;15385;51.088;6.572;2023-04-25T04:33:59;17.20;;;4.97;;
28074;SDS011;15385;51.088;6.572;2023-04-25T04:36:31;12.45;;;4.57;;
28074;SDS011;15385;51.088;6.572;2023-04-25T04:39:02;12.60;;;4.68;;
28074;SDS011;15385;51.088;6.572;2023-04-25T04:41:33;17.90;;;5.10;;
28074;SDS011;15385;51.088;6.572;2023-04-25T04:44:04;12.88;;;5.03;;
28074;SDS011;15385;51.088;6.572;2023-04-25T04:46:36;15.13;;;4.65;;
28074;SDS011;15385;51.088;6.572;2023-04-25T04:49:12;13.40;;;5.38;;
28074;SDS011;15385;51.088;6.572;2023-04-25T04:51:43;10.35;;;4.10;;
28074;SDS011;15385;51.088;6.572;2023-04-25T04:54:14;13.93;;;4.40;;
28074;SDS011;15385;51.088;6.572;2023-04-25T04:56:45;15.77;;;4.75;;
28074;SDS011;15385;51.088;6.572;2023-04-25T04:59:15;21.27;;;4.50;;
28074;SDS011;15385;51.088;6.572;2023-04-25T05:01:46;12.93;;;4.30;;
28074;SDS011;15385;51.088;6.572;2023-04-25T05:04:16;16.52;;;4.85;;
28074;SDS011;15385;51.088;6.572;2023-04-25T05:06:47;11.00;;;3.70;;
28074;SDS011;15385;51.088;6.572;2023-04-25T05:09:17;15.52;;;5.38;;
28074;SDS011;15385;51.088;6.572;2023-04-25T05:11:49;13.43;;;4.53;;
28074;SDS011;15385;51.088;6.572;2023-04-25T05:14:19;13.85;;;4.55;;
28074;SDS011;15385;51.088;6.572;2023-04-25T05:16:51;16.75;;;4.05;;
28074;SDS011;15385;51.088;6.572;2023-04-25T05:19:22;13.77;;;4.20;;
28074;SDS011;15385;51.088;6.572;2023-04-25T05:21:53;19.40;;;4.57;;
28074;SDS011;15385;51.088;6.572;2023-04-25T05:24:24;18.13;;;4.95;;
28074;SDS011;15385;51.088;6.572;2023-04-25T05:26:54;17.05;;;4.90;;
28074;SDS011;15385;51.088;6.572;2023-04-25T05:29:25;14.55;;;4.50;;
28074;SDS011;15385;51.088;6.572;2023-04-25T05:31:55;13.07;;;4.53;;
28074;SDS011;15385;51.088;6.572;2023-04-25T05:34:26;17.13;;;5.15;;
28074;SDS011;15385;51.088;6.572;2023-04-25T05:36:56;9.15;;;4.18;;
28074;SDS011;15385;51.088;6.572;2023-04-25T05:39:27;19.80;;;6.05;;
28074;SDS011;15385;51.088;6.572;2023-04-25T05:41:58;16.42;;;4.65;;
28074;SDS011;15385;51.088;6.572;2023-04-25T05:44:29;14.88;;;5.00;;
28074;SDS011;15385;51.088;6.572;2023-04-25T05:47:00;15.40;;;4.70;;
28074;SDS011;15385;51.088;6.572;2023-04-25T05:49:30;16.08;;;4.63;;
28074;SDS011;15385;51.088;6.572;2023-04-25T05:52:01;19.85;;;5.30;;
28074;SDS011;15385;51.088;6.572;2023-04-25T05:54:32;15.73;;;4.70;;
28074;SDS011;15385;51.088;6.572;2023-04-25T05:57:02;13.75;;;4.88;;
28074;SDS011;15385;51.088;6.572;2023-04-25T05:59:33;13.70;;;4.47;;
28074;SDS011;15385;51.088;6.572;2023-04-25T06:02:04;21.02;;;4.68;;
28074;SDS011;15385;51.088;6.572;2023-04-25T06:04:34;15.25;;;4.28;;
28074;SDS011;15385;51.088;6.572;2023-04-25T06:07:05;15.32;;;4.32;;
28074;SDS011;15385;51.088;6.572;2023-04-25T06:09:35;14.80;;;4.20;;
28074;SDS011;15385;51.088;6.572;2023-04-25T06:12:06;19.00;;;4.53;;
28074;SDS011;15385;51.088;6.572;2023-04-25T06:14:37;15.10;;;4.60;;
28074;SDS011;15385;51.088;6.572;2023-04-25T06:17:08;10.68;;;3.80;;
28074;SDS011;15385;51.088;6.572;2023-04-25T06:19:38;12.10;;;4.40;;
28074;SDS011;15385;51.088;6.572;2023-04-25T06:22:09;14.63;;;4.32;;
28074;SDS011;15385;51.088;6.572;2023-04-25T06:24:40;10.85;;;3.95;;
28074;SDS011;15385;51.088;6.572;2023-04-25T06:27:11;10.60;;;3.88;;
28074;SDS011;15385;51.088;6.572;2023-04-25T06:29:41;15.57;;;4.57;;
28074;SDS011;15385;51.088;6.572;2023-04-25T06:32:12;10.23;;;3.58;;
28074;SDS011;15385;51.088;6.572;2023-04-25T06:34:42;17.35;;;4.20;;
28074;SDS011;15385;51.088;6.572;2023-04-25T06:37:13;11.50;;;4.20;;
28074;SDS011;15385;51.088;6.572;2023-04-25T06:39:43;17.33;;;4.18;;
28074;SDS011;15385;51.088;6.572;2023-04-25T06:44:44;21.90;;;4.57;;
28074;SDS011;15385;51.088;6.572;2023-04-25T06:47:15;22.98;;;5.15;;
28074;SDS011;15385;51.088;6.572;2023-04-25T06:49:46;16.40;;;4.43;;
28074;SDS011;15385;51.088;6.572;2023-04-25T06:52:16;14.45;;;4.50;;
28074;SDS011;15385;51.088;6.572;2023-04-25T06:54:47;13.88;;;3.63;;
28074;SDS011;15385;51.088;6.572;2023-04-25T06:57:18;16.80;;;3.92;;
28074;SDS011;15385;51.088;6.572;2023-04-25T06:59:49;17.88;;;4.45;;
28074;SDS011;15385;51.088;6.572;2023-04-25T07:02:19;13.60;;;4.28;;
28074;SDS011;15385;51.088;6.572;2023-04-25T07:04:51;10.07;;;3.55;;
28074;SDS011;15385;51.088;6.572;2023-04-25T07:07:22;15.57;;;3.92;;
28074;SDS011;15385;51.088;6.572;2023-04-25T07:09:52;13.60;;;4.22;;
28074;SDS011;15385;51.088;6.572;2023-04-25T07:12:23;13.52;;;3.80;;
28074;SDS011;15385;51.088;6.572;2023-04-25T07:14:53;11.95;;;4.25;;
28074;SDS011;15385;51.088;6.572;2023-04-25T07:17:24;13.77;;;4.40;;
28074;SDS011;15385;51.088;6.572;2023-04-25T07:19:54;17.60;;;5.18;;
28074;SDS011;15385;51.088;6.572;2023-04-25T07:22:25;13.32;;;3.63;;
28074;SDS011;15385;51.088;6.572;2023-04-25T07:24:56;17.08;;;4.00;;
28074;SDS011;15385;51.088;6.572;2023-04-25T07:27:27;11.00;;;3.67;;
28074;SDS011;15385;51.088;6.572;2023-04-25T07:29:57;13.40;;;3.88;;
28074;SDS011;15385;51.088;6.572;2023-04-25T07:32:28;14.05;;;3.78;;
28074;SDS011;15385;51.088;6.572;2023-04-25T07:34:59;17.75;;;3.65;;
28074;SDS011;15385;51.088;6.572;2023-04-25T07:37:29;20.23;;;4.10;;
28074;SDS011;15385;51.088;6.572;2023-04-25T07:40:00;14.00;;;3.38;;
28074;SDS011;15385;51.088;6.572;2023-04-25T07:42:35;7.68;;;2.75;;
28074;SDS011;15385;51.088;6.572;2023-04-25T07:45:05;12.75;;;3.00;;
28074;SDS011;15385;51.088;6.572;2023-04-25T07:47:37;10.60;;;3.05;;
28074;SDS011;15385;51.088;6.572;2023-04-25T07:50:08;10.48;;;2.67;;
28074;SDS011;15385;51.088;6.572;2023-04-25T07:52:40;14.43;;;3.10;;
28074;SDS011;15385;51.088;6.572;2023-04-25T07:55:10;14.18;;;3.38;;
28074;SDS011;15385;51.088;6.572;2023-04-25T07:57:41;9.90;;;2.88;;
28074;SDS011;15385;51.088;6.572;2023-04-25T08:00:12;11.27;;;3.50;;
28074;SDS011;15385;51.088;6.572;2023-04-25T08:02:43;12.10;;;3.22;;
28074;SDS011;15385;51.088;6.572;2023-04-25T08:05:13;11.85;;;2.60;;
28074;SDS011;15385;51.088;6.572;2023-04-25T08:07:45;9.45;;;2.75;;
28074;SDS011;15385;51.088;6.572;2023-04-25T08:10:15;10.55;;;2.60;;
28074;SDS011;15385;51.088;6.572;2023-04-25T08:12:46;13.18;;;2.95;;
28074;SDS011;15385;51.088;6.572;2023-04-25T08:15:17;12.05;;;3.58;;
28074;SDS011;15385;51.088;6.572;2023-04-25T08:17:47;7.43;;;2.55;;
28074;SDS011;15385;51.088;6.572;2023-04-25T08:20:18;9.00;;;2.60;;
28074;SDS011;15385;51.088;6.572;2023-04-25T08:22:48;6.88;;;2.17;;
28074;SDS011;15385;51.088;6.572;2023-04-25T08:25:19;7.70;;;2.50;;
28074;SDS011;15385;51.088;6.572;2023-04-25T08:27:50;12.65;;;2.33;;
28074;SDS011;15385;51.088;6.572;2023-04-25T08:30:20;9.70;;;2.75;;
28074;SDS011;15385;51.088;6.572;2023-04-25T08:32:51;9.93;;;2.70;;
28074;SDS011;15385;51.088;6.572;2023-04-25T08:35:21;10.02;;;2.50;;
28074;SDS011;15385;51.088;6.572;2023-04-25T08:37:52;8.88;;;2.33;;
28074;SDS011;15385;51.088;6.572;2023-04-25T08:40:23;8.90;;;1.80;;
28074;SDS011;15385;51.088;6.572;2023-04-25T08:42:59;8.48;;;2.05;;
28074;SDS011;15385;51.088;6.572;2023-04-25T08:45:33;10.18;;;1.95;;
28074;SDS011;15385;51.088;6.572;2023-04-25T08:48:04;11.02;;;2.42;;
28074;SDS011;15385;51.088;6.572;2023-04-25T08:50:39;11.00;;;2.25;;
28074;SDS011;15385;51.088;6.572;2023-04-25T08:53:14;10.20;;;2.10;;
28074;SDS011;15385;51.088;6.572;2023-04-25T08:55:48;10.45;;;2.03;;
28074;SDS011;15385;51.088;6.572;2023-04-25T08:58:19;11.93;;;3.13;;
28074;SDS011;15385;51.088;6.572;2023-04-25T09:00:51;12.07;;;2.20;;
28074;SDS011;15385;51.088;6.572;2023-04-25T09:03:22;10.60;;;2.42;;
28074;SDS011;15385;51.088;6.572;2023-04-25T09:05:53;9.80;;;2.45;;
28074;SDS011;15385;51.088;6.572;2023-04-25T09:08:25;11.20;;;2.35;;
28074;SDS011;15385;51.088;6.572;2023-04-25T09:10:55;7.35;;;1.95;;
28074;SDS011;15385;51.088;6.572;2023-04-25T09:13:27;7.65;;;1.70;;
28074;SDS011;15385;51.088;6.572;2023-04-25T09:15:58;11.00;;;2.45;;
28074;SDS011;15385;51.088;6.572;2023-04-25T09:18:30;10.73;;;2.70;;
28074;SDS011;15385;51.088;6.572;2023-04-25T09:21:08;10.55;;;1.88;;
28074;SDS011;15385;51.088;6.572;2023-04-25T09:23:46;12.98;;;2.83;;
28074;SDS011;15385;51.088;6.572;2023-04-25T09:26:19;10.60;;;2.08;;
28074;SDS011;15385;51.088;6.572;2023-04-25T09:28:50;7.13;;;2.15;;
28074;SDS011;15385;51.088;6.572;2023-04-25T09:31:36;10.20;;;2.40;;
28074;SDS011;15385;51.088;6.572;2023-04-25T09:34:07;7.95;;;2.40;;
28074;SDS011;15385;51.088;6.572;2023-04-25T09:36:40;9.20;;;2.65;;
28074;SDS011;15385;51.088;6.572;2023-04-25T09:39:12;12.55;;;2.65;;
28074;SDS011;15385;51.088;6.572;2023-04-25T09:41:45;9.68;;;2.78;;
28074;SDS011;15385;51.088;6.572;2023-04-25T09:44:19;9.30;;;2.25;;
28074;SDS011;15385;51.088;6.572;2023-04-25T09:46:54;11.07;;;2.70;;
28074;SDS011;15385;51.088;6.572;2023-04-25T09:49:24;6.97;;;1.88;;
28074;SDS011;15385;51.088;6.572;2023-04-25T09:51:57;6.97;;;2.05;;
28074;SDS011;15385;51.088;6.572;2023-04-25T09:54:29;10.40;;;2.65;;
28074;SDS011;15385;51.088;6.572;2023-04-25T09:57:08;7.30;;;2.20;;
28074;SDS011;15385;51.088;6.572;2023-04-25T09:59:53;9.05;;;2.58;;
28074;SDS011;15385;51.088;6.572;2023-04-25T10:02:26;10.57;;;2.10;;
28074;SDS011;15385;51.088;6.572;2023-04-25T10:04:57;7.88;;;1.63;;
28074;SDS011;15385;51.088;6.572;2023-04-25T10:07:30;8.20;;;2.20;;
28074;SDS011;15385;51.088;6.572;2023-04-25T10:10:03;8.43;;;2.00;;
28074;SDS011;15385;51.088;6.572;2023-04-25T10:12:35;7.85;;;1.75;;
28074;SDS011;15385;51.088;6.572;2023-04-25T10:15:07;9.05;;;1.73;;
28074;SDS011;15385;51.088;6.572;2023-04-25T10:17:39;7.93;;;2.13;;
28074;SDS011;15385;51.088;6.572;2023-04-25T10:20:10;8.75;;;2.00;;
28074;SDS011;15385;51.088;6.572;2023-04-25T10:22:41;5.90;;;1.88;;
28074;SDS011;15385;51.088;6.572;2023-04-25T10:25:14;5.97;;;1.58;;
28074;SDS011;15385;51.088;6.572;2023-04-25T10:27:45;7.03;;;1.63;;
28074;SDS011;15385;51.088;6.572;2023-04-25T10:30:15;5.53;;;1.75;;
28074;SDS011;15385;51.088;6.572;2023-04-25T10:32:46;8.50;;;1.90;;
28074;SDS011;15385;51.088;6.572;2023-04-25T10:35:19;8.55;;;1.92;;
28074;SDS011;15385;51.088;6.572;2023-04-25T10:38:02;5.22;;;1.58;;
28074;SDS011;15385;51.088;6.572;2023-04-25T10:40:39;5.20;;;1.40;;
28074;SDS011;15385;51.088;6.572;2023-04-25T10:48:47;7.00;;;1.63;;
28074;SDS011;15385;51.088;6.572;2023-04-25T10:51:23;6.25;;;1.65;;
28074;SDS011;15385;51.088;6.572;2023-04-25T10:54:01;9.68;;;1.95;;
28074;SDS011;15385;51.088;6.572;2023-04-25T10:59:14;5.38;;;1.70;;
28074;SDS011;15385;51.088;6.572;2023-04-25T11:01:51;5.43;;;1.90;;
28074;SDS011;15385;51.088;6.572;2023-04-25T11:04:33;7.15;;;1.80;;
28074;SDS011;15385;51.088;6.572;2023-04-25T11:10:03;6.70;;;1.67;;
28074;SDS011;15385;51.088;6.572;2023-04-25T11:12:34;3.78;;;1.52;;
28074;SDS011;15385;51.088;6.572;2023-04-25T11:15:06;6.60;;;1.83;;
28074;SDS011;15385;51.088;6.572;2023-04-25T11:17:38;6.28;;;1.90;;
28074;SDS011;15385;51.088;6.572;2023-04-25T11:20:10;6.10;;;1.40;;
28074;SDS011;15385;51.088;6.572;2023-04-25T11:22:41;6.55;;;1.75;;
28074;SDS011;15385;51.088;6.572;2023-04-25T11:25:15;6.85;;;1.60;;
28074;SDS011;15385;51.088;6.572;2023-04-25T11:27:53;4.70;;;1.50;;
28074;SDS011;15385;51.088;6.572;2023-04-25T11:30:25;3.70;;;1.67;;
28074;SDS011;15385;51.088;6.572;2023-04-25T11:32:56;5.60;;;1.80;;
28074;SDS011;15385;51.088;6.572;2023-04-25T11:35:27;4.38;;;1.58;;
28074;SDS011;15385;51.088;6.572;2023-04-25T11:37:58;5.10;;;1.13;;
28074;SDS011;15385;51.088;6.572;2023-04-25T11:40:28;6.38;;;1.52;;
28074;SDS011;15385;51.088;6.572;2023-04-25T11:43:00;7.75;;;1.60;;
28074;SDS011;15385;51.088;6.572;2023-04-25T11:45:31;5.30;;;1.50;;
28074;SDS011;15385;51.088;6.572;2023-04-25T11:48:02;4.32;;;1.17;;
28074;SDS011;15385;51.088;6.572;2023-04-25T11:50:33;7.00;;;1.50;;
28074;SDS011;15385;51.088;6.572;2023-04-25T11:53:05;3.42;;;1.40;;
28074;SDS011;15385;51.088;6.572;2023-04-25T11:55:36;4.72;;;1.70;;
28074;SDS011;15385;51.088;6.572;2023-04-25T11:58:07;4.63;;;1.70;;
28074;SDS011;15385;51.088;6.572;2023-04-25T12:00:38;6.40;;;1.80;;
28074;SDS011;15385;51.088;6.572;2023-04-25T12:03:12;5.80;;;1.70;;
28074;SDS011;15385;51.088;6.572;2023-04-25T12:05:43;6.05;;;1.88;;
28074;SDS011;15385;51.088;6.572;2023-04-25T12:08:15;7.65;;;1.52;;
28074;SDS011;15385;51.088;6.572;2023-04-25T12:10:46;5.30;;;2.00;;
28074;SDS011;15385;51.088;6.572;2023-04-25T12:13:24;6.18;;;1.65;;
28074;SDS011;15385;51.088;6.572;2023-04-25T12:15:56;5.53;;;2.10;;
28074;SDS011;15385;51.088;6.572;2023-04-25T12:18:27;6.55;;;1.77;;
28074;SDS011;15385;51.088;6.572;2023-04-25T12:20:58;6.80;;;1.90;;
28074;SDS011;15385;51.088;6.572;2023-04-25T12:23:28;3.92;;;1.60;;
28074;SDS011;15385;51.088;6.572;2023-04-25T12:26:00;5.63;;;1.65;;
28074;SDS011;15385;51.088;6.572;2023-04-25T12:28:32;6.13;;;1.90;;
28074;SDS011;15385;51.088;6.572;2023-04-25T12:31:03;4.85;;;1.70;;
28074;SDS011;15385;51.088;6.572;2023-04-25T12:33:36;3.75;;;1.50;;
28074;SDS011;15385;51.088;6.572;2023-04-25T12:36:07;2.92;;;1.25;;
28074;SDS011;15385;51.088;6.572;2023-04-25T12:38:39;2.72;;;1.20;;
28074;SDS011;15385;51.088;6.572;2023-04-25T12:41:11;6.20;;;1.35;;
28074;SDS011;15385;51.088;6.572;2023-04-25T12:43:42;5.32;;;1.55;;
28074;SDS011;15385;51.088;6.572;2023-04-25T12:46:12;1.65;;;0.80;;
28074;SDS011;15385;51.088;6.572;2023-04-25T12:48:43;5.13;;;0.95;;
28074;SDS011;15385;51.088;6.572;2023-04-25T12:51:14;1.98;;;1.02;;
28074;SDS011;15385;51.088;6.572;2023-04-25T12:53:44;4.75;;;1.23;;
28074;SDS011;15385;51.088;6.572;2023-04-25T12:56:15;5.90;;;1.30;;
28074;SDS011;15385;51.088;6.572;2023-04-25T12:58:46;4.35;;;1.17;;
28074;SDS011;15385;51.088;6.572;2023-04-25T13:01:18;2.00;;;1.00;;
28074;SDS011;15385;51.088;6.572;2023-04-25T13:03:49;7.93;;;0.88;;
28074;SDS011;15385;51.088;6.572;2023-04-25T13:06:20;4.95;;;1.38;;
28074;SDS011;15385;51.088;6.572;2023-04-25T13:08:50;11.20;;;1.60;;
28074;SDS011;15385;51.088;6.572;2023-04-25T13:11:21;4.90;;;1.30;;
28074;SDS011;15385;51.088;6.572;2023-04-25T13:13:52;2.25;;;0.90;;
28074;SDS011;15385;51.088;6.572;2023-04-25T13:16:22;8.02;;;1.35;;
28074;SDS011;15385;51.088;6.572;2023-04-25T13:18:53;4.53;;;0.98;;
28074;SDS011;15385;51.088;6.572;2023-04-25T13:21:23;20.85;;;2.33;;
28074;SDS011;15385;51.088;6.572;2023-04-25T13:23:54;3.50;;;0.95;;
28074;SDS011;15385;51.088;6.572;2023-04-25T13:26:25;46.45;;;5.00;;
28074;SDS011;15385;51.088;6.572;2023-04-25T13:28:56;21.05;;;3.38;;
28074;SDS011;15385;51.088;6.572;2023-04-25T13:31:27;10.57;;;1.20;;
28074;SDS011;15385;51.088;6.572;2023-04-25T13:33:57;4.70;;;0.80;;
28074;SDS011;15385;51.088;6.572;2023-04-25T13:36:28;3.83;;;1.10;;
28074;SDS011;15385;51.088;6.572;2023-04-25T13:38:58;5.75;;;1.10;;
28074;SDS011;15385;51.088;6.572;2023-04-25T13:41:29;5.22;;;1.23;;
28074;SDS011;15385;51.088;6.572;2023-04-25T13:44:00;4.60;;;1.05;;
28074;SDS011;15385;51.088;6.572;2023-04-25T13:46:30;5.07;;;0.88;;
28074;SDS011;15385;51.088;6.572;2023-04-25T13:49:01;12.15;;;1.00;;
28074;SDS011;15385;51.088;6.572;2023-04-25T13:51:32;5.88;;;0.85;;
28074;SDS011;15385;51.088;6.572;2023-04-25T13:54:03;6.63;;;1.40;;
28074;SDS011;15385;51.088;6.572;2023-04-25T13:56:33;5.40;;;1.30;;
28074;SDS011;15385;51.088;6.572;2023-04-25T13:59:04;3.50;;;1.10;;
28074;SDS011;15385;51.088;6.572;2023-04-25T14:01:35;3.40;;;1.08;;
28074;SDS011;15385;51.088;6.572;2023-04-25T14:04:05;3.95;;;1.33;;
28074;SDS011;15385;51.088;6.572;2023-04-25T14:06:36;4.47;;;1.60;;
28074;SDS011;15385;51.088;6.572;2023-04-25T14:09:07;4.60;;;1.27;;
28074;SDS011;15385;51.088;6.572;2023-04-25T14:11:40;3.67;;;1.48;;
28074;SDS011;15385;51.088;6.572;2023-04-25T14:14:10;5.15;;;1.27;;
28074;SDS011;15385;51.088;6.572;2023-04-25T14:16:42;4.70;;;0.98;;
28074;SDS011;15385;51.088;6.572;2023-04-25T14:19:13;4.18;;;1.30;;
28074;SDS011;15385;51.088;6.572;2023-04-25T14:21:43;5.00;;;1.40;;
28074;SDS011;15385;51.088;6.572;2023-04-25T14:24:14;2.97;;;1.10;;
28074;SDS011;15385;51.088;6.572;2023-04-25T14:26:45;3.33;;;1.10;;
28074;SDS011;15385;51.088;6.572;2023-04-25T14:29:16;3.55;;;1.15;;
28074;SDS011;15385;51.088;6.572;2023-04-25T14:31:47;5.28;;;1.20;;
28074;SDS011;15385;51.088;6.572;2023-04-25T14:34:17;2.83;;;0.70;;
28074;SDS011;15385;51.088;6.572;2023-04-25T14:36:48;3.55;;;1.13;;
28074;SDS011;15385;51.088;6.572;2023-04-25T14:39:18;4.40;;;1.05;;
28074;SDS011;15385;51.088;6.572;2023-04-25T14:41:50;3.95;;;1.20;;
28074;SDS011;15385;51.088;6.572;2023-04-25T14:44:20;3.78;;;0.90;;
28074;SDS011;15385;51.088;6.572;2023-04-25T14:46:51;3.78;;;1.08;;
28074;SDS011;15385;51.088;6.572;2023-04-25T14:49:21;3.53;;;0.82;;
28074;SDS011;15385;51.088;6.572;2023-04-25T14:51:52;2.47;;;0.82;;
28074;SDS011;15385;51.088;6.572;2023-04-25T14:54:23;4.20;;;1.58;;
28074;SDS011;15385;51.088;6.572;2023-04-25T14:56:53;5.38;;;1.30;;
28074;SDS011;15385;51.088;6.572;2023-04-25T14:59:24;3.80;;;1.23;;
28074;SDS011;15385;51.088;6.572;2023-04-25T15:01:54;3.88;;;1.23;;
28074;SDS011;15385;51.088;6.572;2023-04-25T15:04:26;5.28;;;1.98;;
28074;SDS011;15385;51.088;6.572;2023-04-25T15:06:57;6.68;;;1.70;;
28074;SDS011;15385;51.088;6.572;2023-04-25T15:09:29;4.80;;;1.40;;
28074;SDS011;15385;51.088;6.572;2023-04-25T15:12:00;5.38;;;1.30;;
28074;SDS011;15385;51.088;6.572;2023-04-25T15:14:30;3.40;;;1.30;;
28074;SDS011;15385;51.088;6.572;2023-04-25T15:17:01;4.03;;;1.17;;
28074;SDS011;15385;51.088;6.572;2023-04-25T15:19:32;2.65;;;0.93;;
28074;SDS011;15385;51.088;6.572;2023-04-25T15:22:03;3.65;;;0.93;;
28074;SDS011;15385;51.088;6.572;2023-04-25T15:24:33;5.68;;;1.40;;